createdAt,value
2023-03-27T00:01:17.054Z,101337.69
2023-03-27T00:03:44.842Z,101342.03
2023-03-27T00:06:17.692Z,101344.66
2023-03-27T00:08:47.463Z,101338.53
2023-03-27T00:11:16.920Z,101344.59
2023-03-27T00:13:50.322Z,101344.59
2023-03-27T00:16:21.582Z,101354.09
2023-03-27T00:18:49.517Z,101353.19
2023-03-27T00:21:17.103Z,101354.03
2023-03-27T00:23:44.163Z,101356.59
2023-03-27T00:26:14.238Z,101360.03
2023-03-27T00:28:42.074Z,101368.69
2023-03-27T00:31:15.190Z,101365.19
2023-03-27T00:33:42.736Z,101372.94
2023-03-27T00:36:10.537Z,101382.44
2023-03-27T00:38:39.767Z,101379.00
2023-03-27T00:41:08.728Z,101383.34
2023-03-27T00:43:42.704Z,101388.53
2023-03-27T00:46:15.831Z,101390.25
2023-03-27T00:48:48.304Z,101398.97
2023-03-27T00:51:17.108Z,101391.94
2023-03-27T00:53:47.030Z,101397.13
2023-03-27T00:56:16.570Z,101404.03
2023-03-27T00:58:52.770Z,101410.03
2023-03-27T01:01:24.853Z,101408.22
2023-03-27T01:03:54.300Z,101408.22
2023-03-27T01:06:22.506Z,101412.50
2023-03-27T01:08:49.558Z,101405.59
2023-03-27T01:11:59.972Z,101416.00
2023-03-27T01:14:41.931Z,101413.34
2023-03-27T01:17:34.941Z,101410.75
2023-03-27T01:20:41.126Z,101415.09
2023-03-27T01:23:59.354Z,101420.25
2023-03-27T01:26:57.531Z,101424.56
2023-03-27T01:30:07.610Z,101434.97
2023-03-27T01:33:01.244Z,101434.09
2023-03-27T01:35:49.450Z,101440.13
2023-03-27T01:38:56.519Z,101444.41
2023-03-27T01:42:05.996Z,101451.22
2023-03-27T01:45:11.874Z,101459.78
2023-03-27T01:47:51.062Z,101457.94
2023-03-27T01:50:33.413Z,101452.63
2023-03-27T01:53:15.901Z,101458.66
2023-03-27T01:55:52.860Z,101460.34
2023-03-27T01:58:29.764Z,101468.97
2023-03-27T02:01:01.760Z,101462.94
2023-03-27T02:03:41.616Z,101468.97
2023-03-27T02:06:17.154Z,101468.06
2023-03-27T02:09:13.019Z,101474.13
2023-03-27T02:12:04.162Z,101480.19
2023-03-27T02:14:42.017Z,101486.19
2023-03-27T02:17:14.954Z,101489.63
2023-03-27T02:20:09.828Z,101492.28
2023-03-27T02:22:40.131Z,101490.53
2023-03-27T02:25:25.240Z,101496.72
2023-03-27T02:28:34.818Z,101504.59
2023-03-27T02:31:33.251Z,101507.34
2023-03-27T02:34:42.498Z,101508.41
2023-03-27T02:37:35.141Z,101510.31
2023-03-27T02:40:48.404Z,101518.19
2023-03-27T02:44:05.752Z,101523.53
2023-03-27T02:47:07.356Z,101527.06
2023-03-27T02:49:44.076Z,101535.84
2023-03-27T02:52:23.478Z,101527.28
2023-03-27T02:55:09.279Z,101530.91
2023-03-27T02:57:41.897Z,101535.41
2023-03-27T03:00:28.878Z,101537.28
2023-03-27T03:03:27.853Z,101546.97
2023-03-27T03:06:07.257Z,101539.34
2023-03-27T03:08:38.733Z,101544.63
2023-03-27T03:11:13.484Z,101540.31
2023-03-27T03:13:41.496Z,101537.72
2023-03-27T03:16:10.159Z,101540.38
2023-03-27T03:18:37.350Z,101547.34
2023-03-27T03:21:05.823Z,101549.97
2023-03-27T03:23:33.100Z,101558.66
2023-03-27T03:26:03.184Z,101559.50
2023-03-27T03:28:41.524Z,101568.06
2023-03-27T03:31:43.093Z,101576.66
2023-03-27T03:34:18.378Z,101571.28
2023-03-27T03:36:49.999Z,101585.06
2023-03-27T03:39:22.812Z,101582.38
2023-03-27T03:41:50.761Z,101592.78
2023-03-27T03:44:18.674Z,101597.16
2023-03-27T03:46:45.772Z,101596.19
2023-03-27T03:49:12.818Z,101600.53
2023-03-27T03:51:39.796Z,101602.16
2023-03-27T03:54:07.036Z,101609.00
2023-03-27T03:56:34.499Z,101613.28
2023-03-27T03:59:01.816Z,101614.94
2023-03-27T04:01:30.041Z,101626.13
2023-03-27T04:04:02.212Z,101625.13
2023-03-27T04:06:48.163Z,101632.84
2023-03-27T04:09:15.910Z,101631.84
2023-03-27T04:11:55.119Z,101636.03
2023-03-27T04:14:48.197Z,101630.69
2023-03-27T04:17:35.268Z,101646.22
2023-03-27T04:20:06.706Z,101654.09
2023-03-27T04:22:38.236Z,101653.25
2023-03-27T04:25:08.813Z,101660.22
2023-03-27T04:27:35.861Z,101664.63
2023-03-27T04:30:29.270Z,101665.59
2023-03-27T04:33:25.732Z,101670.88
2023-03-27T04:36:06.178Z,101671.84
2023-03-27T04:38:55.526Z,101687.56
2023-03-27T04:41:22.664Z,101681.56
2023-03-27T04:43:49.955Z,101700.66
2023-03-27T04:46:17.399Z,101698.19
2023-03-27T04:48:44.672Z,101710.44
2023-03-27T04:51:26.584Z,101701.03
2023-03-27T04:53:56.410Z,101713.28
2023-03-27T04:56:24.960Z,101716.03
2023-03-27T04:58:54.699Z,101717.75
2023-03-27T05:01:23.019Z,101720.25
2023-03-27T05:04:08.408Z,101723.63
2023-03-27T05:06:47.867Z,101735.69
2023-03-27T05:09:17.302Z,101731.28
2023-03-27T05:11:49.494Z,101735.53
2023-03-27T05:14:22.389Z,101746.69
2023-03-27T05:16:52.084Z,101739.56
2023-03-27T05:19:20.712Z,101745.53
2023-03-27T05:21:56.873Z,101737.56
2023-03-27T05:24:24.141Z,101739.22
2023-03-27T05:26:51.289Z,101742.59
2023-03-27T05:29:19.005Z,101740.78
2023-03-27T05:31:50.899Z,101749.38
2023-03-27T05:34:38.640Z,101750.19
2023-03-27T05:37:09.932Z,101754.50
2023-03-27T05:39:55.924Z,101763.97
2023-03-27T05:42:22.885Z,101759.66
2023-03-27T05:44:49.917Z,101763.97
2023-03-27T05:47:17.075Z,101769.16
2023-03-27T05:49:44.575Z,101776.13
2023-03-27T05:52:12.925Z,101770.97
2023-03-27T05:54:41.953Z,101775.34
2023-03-27T05:57:10.564Z,101773.59
2023-03-27T05:59:39.730Z,101766.69
2023-03-27T06:02:21.114Z,101773.69
2023-03-27T06:05:01.462Z,101772.09
2023-03-27T06:07:34.603Z,101777.41
2023-03-27T06:10:07.752Z,101781.09
2023-03-27T06:12:46.433Z,101787.44
2023-03-27T06:15:33.681Z,101791.22
2023-03-27T06:18:23.437Z,101797.56
2023-03-27T06:20:50.748Z,101800.34
2023-03-27T06:23:18.049Z,101806.72
2023-03-27T06:25:47.330Z,101799.06
2023-03-27T06:28:14.836Z,101808.72
2023-03-27T06:30:44.954Z,101810.47
2023-03-27T06:33:30.964Z,101813.91
2023-03-27T06:36:01.977Z,101816.44
2023-03-27T06:38:34.921Z,101826.75
2023-03-27T06:41:01.945Z,101821.56
2023-03-27T06:43:51.941Z,101818.97
2023-03-27T06:46:44.628Z,101822.50
2023-03-27T06:49:22.465Z,101824.34
2023-03-27T06:51:49.894Z,101824.47
2023-03-27T06:54:20.708Z,101830.63
2023-03-27T06:56:51.588Z,101834.16
2023-03-27T06:59:21.486Z,101834.22
2023-03-27T07:01:52.593Z,101840.34
2023-03-27T07:04:31.401Z,101839.56
2023-03-27T07:07:06.156Z,101847.59
2023-03-27T07:09:39.710Z,101854.66
2023-03-27T07:12:11.653Z,101857.41
2023-03-27T07:14:41.510Z,101856.59
2023-03-27T07:17:09.547Z,101854.88
2023-03-27T07:19:50.811Z,101854.91
2023-03-27T07:22:21.182Z,101860.19
2023-03-27T07:24:48.137Z,101871.63
2023-03-27T07:27:16.416Z,101871.75
2023-03-27T07:29:44.556Z,101877.94
2023-03-27T07:32:29.547Z,101885.84
2023-03-27T07:35:06.858Z,101888.63
2023-03-27T07:37:57.700Z,101890.47
2023-03-27T07:40:40.041Z,101896.75
2023-03-27T07:43:27.986Z,101901.97
2023-03-27T07:45:55.935Z,101901.97
2023-03-27T07:48:25.021Z,101901.06
2023-03-27T07:50:58.104Z,101897.66
2023-03-27T07:53:33.620Z,101901.19
2023-03-27T07:56:26.647Z,101902.22
2023-03-27T07:59:26.827Z,101898.91
2023-03-27T08:01:55.532Z,101896.47
2023-03-27T08:04:27.277Z,101906.22
2023-03-27T08:07:07.996Z,101902.00
2023-03-27T08:09:37.171Z,101906.50
2023-03-27T08:12:07.708Z,101901.31
2023-03-27T08:14:40.072Z,101913.56
2023-03-27T08:17:18.230Z,101907.47
2023-03-27T08:19:48.308Z,101912.75
2023-03-27T08:22:16.846Z,101930.22
2023-03-27T08:25:04.793Z,101917.16
2023-03-27T08:27:33.163Z,101921.56
2023-03-27T08:30:01.751Z,101926.81
2023-03-27T08:32:29.030Z,101925.16
2023-03-27T08:34:56.620Z,101933.03
2023-03-27T08:37:24.508Z,101934.91
2023-03-27T08:40:26.072Z,101926.31
2023-03-27T08:43:20.182Z,101931.69
2023-03-27T08:46:16.417Z,101926.47
2023-03-27T08:49:21.407Z,101939.66
2023-03-27T08:52:24.787Z,101934.50
2023-03-27T08:55:13.643Z,101940.66
2023-03-27T08:57:51.282Z,101937.25
2023-03-27T09:00:37.754Z,101959.03
2023-03-27T09:03:53.106Z,101961.56
2023-03-27T09:06:39.710Z,101973.84
2023-03-27T09:09:30.944Z,101964.31
2023-03-27T09:12:38.634Z,101952.97
2023-03-27T09:15:10.169Z,101964.41
2023-03-27T09:18:09.439Z,101966.16
2023-03-27T09:20:44.824Z,101961.81
2023-03-27T09:23:46.371Z,101982.81
2023-03-27T09:26:52.687Z,101972.34
2023-03-27T09:29:40.836Z,101961.81
2023-03-27T09:32:27.830Z,101959.19
2023-03-27T09:35:01.138Z,101964.47
2023-03-27T09:37:28.475Z,101986.31
2023-03-27T09:40:00.163Z,101985.44
2023-03-27T09:42:41.819Z,102008.19
2023-03-27T09:45:13.239Z,102008.13
2023-03-27T09:48:09.327Z,102028.53
2023-03-27T09:50:47.302Z,102013.72
2023-03-27T09:53:27.898Z,102018.19
2023-03-27T09:56:16.395Z,102024.47
2023-03-27T09:58:52.158Z,102022.34
2023-03-27T10:01:37.915Z,102031.13
2023-03-27T10:04:21.952Z,102023.53
2023-03-27T10:07:01.854Z,102031.91
2023-03-27T10:10:21.741Z,102015.00
2023-03-27T10:13:14.243Z,102021.47
2023-03-27T10:15:51.136Z,102020.91
2023-03-27T10:18:31.672Z,102013.38
2023-03-27T10:21:35.563Z,102010.22
2023-03-27T10:24:27.737Z,102005.19
2023-03-27T10:27:36.140Z,102002.81
2023-03-27T10:30:34.614Z,102011.63
2023-03-27T10:33:39.766Z,102009.06
2023-03-27T10:36:21.551Z,102020.47
2023-03-27T10:39:05.244Z,102033.59
2023-03-27T10:41:41.307Z,102018.72
2023-03-27T10:44:25.868Z,102020.47
2023-03-27T10:46:56.817Z,102018.69
2023-03-27T10:50:01.060Z,102026.59
2023-03-27T10:53:04.598Z,102043.22
2023-03-27T10:56:04.306Z,102045.81
2023-03-27T10:58:50.965Z,102047.47
2023-03-27T11:01:35.661Z,102057.09
2023-03-27T11:04:16.565Z,102053.63
2023-03-27T11:06:54.785Z,102082.41
2023-03-27T11:09:29.700Z,102078.03
2023-03-27T11:12:14.296Z,102075.38
2023-03-27T11:15:02.523Z,102071.00
2023-03-27T11:18:06.956Z,102074.50
2023-03-27T11:20:51.844Z,102070.09
2023-03-27T11:23:38.472Z,102080.56
2023-03-27T11:26:49.644Z,102097.22
2023-03-27T11:29:35.848Z,102086.72
2023-03-27T11:32:21.557Z,102091.09
2023-03-27T11:35:06.538Z,102095.44
2023-03-27T11:37:53.693Z,102081.47
2023-03-27T11:40:42.831Z,102084.97
2023-03-27T11:43:13.028Z,102099.03
2023-03-27T11:45:58.136Z,102082.47
2023-03-27T11:49:13.294Z,102069.41
2023-03-27T11:52:00.858Z,102086.06
2023-03-27T11:55:07.253Z,102086.97
2023-03-27T11:58:15.966Z,102087.84
2023-03-27T12:01:17.837Z,102092.22
2023-03-27T12:04:22.846Z,102082.59
2023-03-27T12:07:40.601Z,102090.44
2023-03-27T12:10:34.642Z,102101.78
2023-03-27T12:13:41.867Z,102136.91
2023-03-27T12:17:01.555Z,102126.31
2023-03-27T12:19:58.212Z,102128.47
2023-03-27T12:22:58.508Z,102110.59
2023-03-27T12:26:21.942Z,102114.88
2023-03-27T12:29:22.667Z,102142.47
2023-03-27T12:32:07.932Z,102129.94
2023-03-27T12:34:58.926Z,102100.06
2023-03-27T12:37:44.259Z,102089.53
2023-03-27T12:40:28.227Z,102094.97
2023-03-27T12:43:23.246Z,102090.88
2023-03-27T12:46:12.540Z,102092.13
2023-03-27T12:49:02.512Z,102092.53
2023-03-27T12:51:48.328Z,102101.59
2023-03-27T12:54:31.646Z,102101.75
2023-03-27T12:57:25.079Z,102121.94
2023-03-27T12:59:59.674Z,102136.75
2023-03-27T13:03:30.245Z,102133.13
2023-03-27T13:06:18.186Z,102122.53
2023-03-27T13:09:08.223Z,102122.47
2023-03-27T13:12:11.771Z,102110.28
2023-03-27T13:15:33.689Z,102131.34
2023-03-27T13:18:32.665Z,102104.31
2023-03-27T13:21:25.186Z,102106.16
2023-03-27T13:24:46.903Z,102110.59
2023-03-27T13:27:48.284Z,102095.75
2023-03-27T13:30:51.442Z,102138.63
2023-03-27T13:33:46.683Z,102110.63
2023-03-27T13:36:28.344Z,102104.50
2023-03-27T13:38:56.576Z,102103.63
2023-03-27T13:41:49.340Z,102109.72
2023-03-27T13:44:46.899Z,102106.16
2023-03-27T13:47:34.519Z,102101.66
2023-03-27T13:50:59.576Z,102118.31
2023-03-27T13:53:32.881Z,102133.34
2023-03-27T13:56:32.396Z,102150.03
2023-03-27T13:59:38.579Z,102148.25
2023-03-27T14:02:29.280Z,102147.38
2023-03-27T14:05:23.403Z,102160.47
2023-03-27T14:08:22.437Z,102158.72
2023-03-27T14:11:45.607Z,102165.63
2023-03-27T14:15:15.761Z,102155.09
2023-03-27T14:18:18.070Z,102158.63
2023-03-27T14:20:50.199Z,102157.81
2023-03-27T14:23:28.401Z,102171.84
2023-03-27T14:26:14.767Z,102161.34
2023-03-27T14:28:53.476Z,102173.53
2023-03-27T14:31:35.540Z,102157.72
2023-03-27T14:34:09.846Z,102155.19
2023-03-27T14:36:42.484Z,102162.19
2023-03-27T14:39:31.301Z,102155.22
2023-03-27T14:42:17.127Z,102162.28
2023-03-27T14:44:48.162Z,102163.16
2023-03-27T14:47:21.218Z,102171.91
2023-03-27T14:49:53.809Z,102171.03
2023-03-27T14:52:35.613Z,102187.69
2023-03-27T14:55:34.503Z,102171.97
2023-03-27T14:58:25.867Z,102176.31
2023-03-27T15:01:01.884Z,102192.06
2023-03-27T15:03:35.490Z,102198.22
2023-03-27T15:06:26.390Z,102200.00
2023-03-27T15:09:05.432Z,102198.19
2023-03-27T15:12:11.669Z,102203.38
2023-03-27T15:14:41.386Z,102205.13
2023-03-27T15:17:19.233Z,102215.59
2023-03-27T15:19:54.763Z,102220.88
2023-03-27T15:22:33.891Z,102202.44
2023-03-27T15:25:19.578Z,102214.63
2023-03-27T15:27:53.082Z,102201.50
2023-03-27T15:30:33.573Z,102223.38
2023-03-27T15:33:02.210Z,102211.06
2023-03-27T15:35:40.319Z,102228.44
2023-03-27T15:38:14.215Z,102222.22
2023-03-27T15:40:46.228Z,102230.88
2023-03-27T15:43:13.210Z,102244.75
2023-03-27T15:45:59.010Z,102225.41
2023-03-27T15:48:30.762Z,102248.75
2023-03-27T15:51:26.884Z,102249.38
2023-03-27T15:53:58.735Z,102245.63
2023-03-27T15:56:41.167Z,102251.59
2023-03-27T15:59:13.821Z,102248.94
2023-03-27T16:01:53.821Z,102254.19
2023-03-27T16:04:53.583Z,102256.19
2023-03-27T16:07:32.064Z,102249.44
2023-03-27T16:10:07.589Z,102252.28
2023-03-27T16:12:55.433Z,102251.38
2023-03-27T16:15:31.530Z,102255.63
2023-03-27T16:18:13.392Z,102265.94
2023-03-27T16:20:40.532Z,102258.03
2023-03-27T16:23:07.829Z,102262.38
2023-03-27T16:25:35.519Z,102264.84
2023-03-27T16:28:02.958Z,102266.56
2023-03-27T16:30:35.928Z,102282.22
2023-03-27T16:33:15.231Z,102277.78
2023-03-27T16:35:42.947Z,102289.00
2023-03-27T16:38:09.961Z,102309.00
2023-03-27T16:40:36.969Z,102315.75
2023-03-27T16:43:04.178Z,102308.50
2023-03-27T16:45:31.982Z,102284.91
2023-03-27T16:47:59.175Z,102276.03
2023-03-27T16:50:29.695Z,102281.03
2023-03-27T16:52:58.093Z,102280.72
2023-03-27T16:55:25.194Z,102283.88
2023-03-27T16:57:55.698Z,102286.19
2023-03-27T17:00:23.501Z,102281.66
2023-03-27T17:02:52.052Z,102282.34
2023-03-27T17:05:19.362Z,102289.31
2023-03-27T17:07:46.919Z,102292.84
2023-03-27T17:10:15.058Z,102292.88
2023-03-27T17:12:42.377Z,102293.03
2023-03-27T17:15:09.763Z,102300.97
2023-03-27T17:17:37.041Z,102297.56
2023-03-27T17:20:07.597Z,102293.97
2023-03-27T17:22:35.420Z,102306.16
2023-03-27T17:25:05.551Z,102300.06
2023-03-27T17:27:33.791Z,102306.22
2023-03-27T17:30:00.895Z,102308.88
2023-03-27T17:32:28.033Z,102312.47
2023-03-27T17:34:55.685Z,102317.88
2023-03-27T17:37:24.610Z,102335.47
2023-03-27T17:39:52.220Z,102333.09
2023-03-27T17:42:19.316Z,102328.06
2023-03-27T17:44:46.375Z,102332.38
2023-03-27T17:47:14.379Z,102330.41
2023-03-27T17:49:43.140Z,102332.69
2023-03-27T17:52:11.912Z,102341.13
2023-03-27T17:54:39.760Z,102340.84
2023-03-27T17:57:07.051Z,102345.09
2023-03-27T17:59:34.100Z,102351.97
2023-03-27T18:02:01.237Z,102349.25
2023-03-27T18:04:29.271Z,102344.78
2023-03-27T18:06:56.424Z,102351.63
2023-03-27T18:09:23.498Z,102347.16
2023-03-27T18:11:50.767Z,102357.56
2023-03-27T18:14:17.801Z,102354.84
2023-03-27T18:16:44.849Z,102360.84
2023-03-27T18:19:12.325Z,102370.31
2023-03-27T18:21:39.316Z,102364.13
2023-03-27T18:24:06.769Z,102364.91
2023-03-27T18:26:33.832Z,102370.06
2023-03-27T18:29:01.007Z,102369.97
2023-03-27T18:31:28.000Z,102388.19
2023-03-27T18:33:55.168Z,102381.16
2023-03-27T18:36:22.255Z,102384.69
2023-03-27T18:38:50.176Z,102395.19
2023-03-27T18:41:17.871Z,102395.31
2023-03-27T18:43:44.838Z,102402.41
2023-03-27T18:46:16.675Z,102399.78
2023-03-27T18:48:48.517Z,102396.13
2023-03-27T18:51:18.544Z,102397.69
2023-03-27T18:53:45.959Z,102406.25
2023-03-27T18:56:13.499Z,102404.50
2023-03-27T18:58:40.959Z,102407.13
2023-03-27T19:01:11.582Z,102406.28
2023-03-27T19:03:39.129Z,102412.34
2023-03-27T19:06:09.484Z,102408.88
2023-03-27T19:08:37.989Z,102413.16
2023-03-27T19:11:06.553Z,102410.34
2023-03-27T19:13:52.114Z,102416.38
2023-03-27T19:16:31.088Z,102416.28
2023-03-27T19:19:16.667Z,102416.25
2023-03-27T19:21:53.494Z,102424.81
2023-03-27T19:24:32.352Z,102420.47
2023-03-27T19:27:00.295Z,102418.66
2023-03-27T19:29:27.550Z,102422.91
2023-03-27T19:31:54.553Z,102431.56
2023-03-27T19:34:32.654Z,102423.53
2023-03-27T19:37:08.606Z,102429.38
2023-03-27T19:39:35.511Z,102424.00
2023-03-27T19:42:02.672Z,102432.47
2023-03-27T19:44:29.719Z,102432.31
2023-03-27T19:46:56.711Z,102433.84
2023-03-27T19:49:23.659Z,102429.25
2023-03-27T19:51:59.167Z,102431.63
2023-03-27T19:54:27.239Z,102434.09
2023-03-27T19:56:54.950Z,102439.16
2023-03-27T19:59:30.300Z,102440.72
2023-03-27T20:01:59.269Z,102436.28
2023-03-27T20:04:26.286Z,102443.97
2023-03-27T20:06:53.830Z,102446.34
2023-03-27T20:09:20.977Z,102447.13
2023-03-27T20:11:47.895Z,102435.75
2023-03-27T20:14:14.898Z,102435.66
2023-03-27T20:16:41.849Z,102438.22
2023-03-27T20:19:09.319Z,102442.50
2023-03-27T20:21:39.859Z,102439.81
2023-03-27T20:24:13.512Z,102445.91
2023-03-27T20:26:48.158Z,102449.47
2023-03-27T20:29:22.881Z,102452.91
2023-03-27T20:31:50.451Z,102454.59
2023-03-27T20:34:19.466Z,102453.75
2023-03-27T20:36:47.490Z,102453.75
2023-03-27T20:39:47.153Z,102453.69
2023-03-27T20:42:17.969Z,102457.03
2023-03-27T20:44:55.180Z,102462.97
2023-03-27T20:47:22.404Z,102462.09
2023-03-27T20:49:49.411Z,102464.66
2023-03-27T20:52:19.469Z,102464.47
2023-03-27T20:54:47.811Z,102457.44
2023-03-27T20:57:17.013Z,102469.41
2023-03-27T20:59:46.173Z,102464.13
2023-03-27T21:02:19.333Z,102473.47
2023-03-27T21:04:47.553Z,102478.50
2023-03-27T21:07:15.755Z,102471.50
2023-03-27T21:09:45.126Z,102479.06
2023-03-27T21:12:12.124Z,102470.25
2023-03-27T21:14:39.059Z,102470.03
2023-03-27T21:17:06.071Z,102474.25
2023-03-27T21:19:33.016Z,102476.72
2023-03-27T21:22:02.989Z,102487.09
2023-03-27T21:24:30.385Z,102479.28
2023-03-27T21:26:58.460Z,102479.25
2023-03-27T21:29:26.155Z,102486.13
2023-03-27T21:31:53.196Z,102486.13
2023-03-27T21:34:20.434Z,102479.94
2023-03-27T21:36:47.507Z,102482.41
2023-03-27T21:39:14.520Z,102490.19
2023-03-27T21:41:41.473Z,102490.97
2023-03-27T21:44:08.463Z,102491.78
2023-03-27T21:46:35.598Z,102490.72
2023-03-27T21:51:29.615Z,102492.97
2023-03-27T21:53:56.509Z,102490.25
2023-03-27T21:56:23.434Z,102491.81
2023-03-27T21:58:50.529Z,102500.31
2023-03-27T22:01:18.019Z,102500.22
2023-03-27T22:03:45.264Z,102499.22
2023-03-27T22:06:13.375Z,102500.00
2023-03-27T22:08:42.919Z,102504.19
2023-03-27T22:11:12.460Z,102504.19
2023-03-27T22:13:40.200Z,102504.13
2023-03-27T22:16:11.984Z,102506.72
2023-03-27T22:18:40.500Z,102514.44
2023-03-27T22:21:25.592Z,102517.78
2023-03-27T22:23:55.770Z,102515.09
2023-03-27T22:26:29.162Z,102515.81
2023-03-27T22:28:57.051Z,102513.19
2023-03-27T22:31:25.070Z,102514.84
2023-03-27T22:33:52.220Z,102519.13
2023-03-27T22:36:19.732Z,102521.59
2023-03-27T22:38:46.831Z,102526.66
2023-03-27T22:41:14.635Z,102526.53
2023-03-27T22:43:42.290Z,102535.09
2023-03-27T22:46:15.721Z,102533.28
2023-03-27T22:48:43.514Z,102528.03
2023-03-27T22:51:12.419Z,102535.69
2023-03-27T22:53:39.783Z,102537.34
2023-03-27T22:56:08.121Z,102536.38
2023-03-27T22:58:35.228Z,102538.06
2023-03-27T23:01:04.538Z,102538.91
2023-03-27T23:03:32.299Z,102531.94
2023-03-27T23:05:59.677Z,102536.16
2023-03-27T23:08:28.619Z,102541.22
2023-03-27T23:11:06.187Z,102547.16
2023-03-27T23:13:34.937Z,102551.31
2023-03-27T23:16:02.464Z,102550.44
2023-03-27T23:18:29.901Z,102551.31
2023-03-27T23:21:00.915Z,102548.78
2023-03-27T23:23:31.654Z,102551.38
2023-03-27T23:25:59.826Z,102544.41
2023-03-27T23:28:32.225Z,102547.88
2023-03-27T23:31:06.260Z,102548.78
2023-03-27T23:33:40.196Z,102555.66
2023-03-27T23:36:11.903Z,102553.16
2023-03-27T23:38:40.340Z,102554.84
2023-03-27T23:41:09.745Z,102549.66
2023-03-27T23:43:37.795Z,102556.63
2023-03-27T23:46:08.652Z,102556.69
2023-03-27T23:48:38.036Z,102553.34
2023-03-27T23:51:06.411Z,102548.91
2023-03-27T23:53:34.329Z,102549.66
2023-03-27T23:56:01.717Z,102547.78
2023-03-27T23:58:32.316Z,102555.44
